createdAt,value
2019-03-25T00:01:46.591Z,4.83
2019-03-25T00:04:15.458Z,5.80
2019-03-25T00:06:44.297Z,4.47
2019-03-25T00:09:13.219Z,4.77
2019-03-25T00:11:42.038Z,5.40
2019-03-25T00:14:10.835Z,4.63
2019-03-25T00:16:39.726Z,4.53
2019-03-25T00:19:08.532Z,4.83
2019-03-25T00:21:37.425Z,4.57
2019-03-25T00:24:06.307Z,5.00
2019-03-25T00:26:35.086Z,4.37
2019-03-25T00:29:03.945Z,5.20
2019-03-25T00:31:32.709Z,5.20
2019-03-25T00:34:01.567Z,5.03
2019-03-25T00:36:30.377Z,4.53
2019-03-25T00:38:59.116Z,4.83
2019-03-25T00:41:27.925Z,4.40
2019-03-25T00:43:56.711Z,4.77
2019-03-25T00:46:25.529Z,4.80
2019-03-25T00:48:54.307Z,5.20
2019-03-25T00:51:23.126Z,5.03
2019-03-25T00:53:51.850Z,5.03
2019-03-25T00:56:20.721Z,5.20
2019-03-25T00:58:49.542Z,8.20
2019-03-25T01:01:18.413Z,5.27
2019-03-25T01:03:47.148Z,5.47
2019-03-25T01:06:15.942Z,6.07
2019-03-25T01:08:44.897Z,5.90
2019-03-25T01:11:13.689Z,5.87
2019-03-25T01:13:42.422Z,6.20
2019-03-25T01:16:11.203Z,5.97
2019-03-25T01:18:39.958Z,5.70
2019-03-25T01:21:08.822Z,5.67
2019-03-25T01:23:37.651Z,6.07
2019-03-25T01:26:06.514Z,6.10
2019-03-25T01:28:35.329Z,5.83
2019-03-25T01:31:04.193Z,6.23
2019-03-25T01:33:32.937Z,6.80
2019-03-25T01:36:01.780Z,6.00
2019-03-25T01:38:30.606Z,6.47
2019-03-25T01:40:59.380Z,5.73
2019-03-25T01:43:28.270Z,6.00
2019-03-25T01:45:57.121Z,6.03
2019-03-25T01:48:25.873Z,5.43
2019-03-25T01:50:54.612Z,5.93
2019-03-25T01:53:23.365Z,6.27
2019-03-25T01:55:52.286Z,5.47
2019-03-25T01:58:21.042Z,6.10
2019-03-25T02:00:49.800Z,6.90
2019-03-25T02:03:18.561Z,5.60
2019-03-25T02:05:47.387Z,7.40
2019-03-25T02:08:16.171Z,5.63
2019-03-25T02:10:44.977Z,5.90
2019-03-25T02:13:13.793Z,6.23
2019-03-25T02:15:42.686Z,6.83
2019-03-25T02:18:11.406Z,6.30
2019-03-25T02:20:40.226Z,6.43
2019-03-25T02:23:09.421Z,6.53
2019-03-25T02:25:38.830Z,6.27
2019-03-25T02:28:07.618Z,6.27
2019-03-25T02:30:36.466Z,6.80
2019-03-25T02:33:05.273Z,6.57
2019-03-25T02:35:34.254Z,6.60
2019-03-25T02:38:03.182Z,6.83
2019-03-25T02:40:32.030Z,5.80
2019-03-25T02:43:00.835Z,6.37
2019-03-25T02:45:29.648Z,6.47
2019-03-25T02:47:58.507Z,6.93
2019-03-25T02:50:27.336Z,7.17
2019-03-25T02:52:56.145Z,6.23
2019-03-25T02:55:40.166Z,6.30
2019-03-25T02:57:55.481Z,6.80
2019-03-25T03:00:30.285Z,5.80
2019-03-25T03:02:59.173Z,6.83
2019-03-25T03:05:28.073Z,6.17
2019-03-25T03:07:56.873Z,6.77
2019-03-25T03:10:25.675Z,7.00
2019-03-25T03:12:54.485Z,6.70
2019-03-25T03:15:23.265Z,6.30
2019-03-25T03:17:52.020Z,6.47
2019-03-25T03:20:20.883Z,6.77
2019-03-25T03:22:49.754Z,6.00
2019-03-25T03:25:18.538Z,6.43
2019-03-25T03:27:47.273Z,7.23
2019-03-25T03:30:16.137Z,6.63
2019-03-25T03:32:45.095Z,6.73
2019-03-25T03:35:14.170Z,6.70
2019-03-25T03:37:42.999Z,5.33
2019-03-25T03:40:11.946Z,6.57
2019-03-25T03:42:40.823Z,6.53
2019-03-25T03:45:09.665Z,6.63
2019-03-25T03:47:38.418Z,6.90
2019-03-25T03:50:08.023Z,6.43
2019-03-25T03:52:37.215Z,7.80
2019-03-25T03:55:06.473Z,7.03
2019-03-25T03:57:35.902Z,6.53
2019-03-25T04:00:06.754Z,6.77
2019-03-25T04:02:35.598Z,6.93
2019-03-25T04:05:04.669Z,8.47
2019-03-25T04:07:33.442Z,6.83
2019-03-25T04:10:02.755Z,6.73
2019-03-25T04:12:31.469Z,6.40
2019-03-25T04:15:00.429Z,6.93
2019-03-25T04:17:29.183Z,6.43
2019-03-25T04:19:57.903Z,6.40
2019-03-25T04:22:26.631Z,5.53
2019-03-25T04:24:55.430Z,5.57
2019-03-25T04:27:24.139Z,4.93
2019-03-25T04:29:52.864Z,5.20
2019-03-25T04:32:21.573Z,5.63
2019-03-25T04:34:50.313Z,4.37
2019-03-25T04:37:19.082Z,3.90
2019-03-25T04:39:47.829Z,4.43
2019-03-25T04:42:16.564Z,4.97
2019-03-25T04:44:45.422Z,4.20
2019-03-25T04:47:14.129Z,4.67
2019-03-25T04:49:42.847Z,4.10
2019-03-25T04:52:11.615Z,3.60
2019-03-25T04:54:40.329Z,3.10
2019-03-25T04:57:09.069Z,2.73
2019-03-25T04:59:37.773Z,2.70
2019-03-25T05:02:06.552Z,2.43
2019-03-25T05:04:35.319Z,2.60
2019-03-25T05:07:04.063Z,2.30
2019-03-25T05:09:32.776Z,2.73
2019-03-25T05:12:01.562Z,2.30
2019-03-25T05:14:30.286Z,2.10
2019-03-25T05:16:59.085Z,2.83
2019-03-25T05:19:27.793Z,2.87
2019-03-25T05:21:56.597Z,2.93
2019-03-25T05:24:25.436Z,2.70
2019-03-25T05:26:54.154Z,2.50
2019-03-25T05:29:22.851Z,2.57
2019-03-25T05:31:51.577Z,2.50
2019-03-25T05:34:20.303Z,2.83
2019-03-25T05:36:49.104Z,2.20
2019-03-25T05:39:17.804Z,2.27
2019-03-25T05:41:46.536Z,3.53
2019-03-25T05:44:15.247Z,2.90
2019-03-25T05:46:44.124Z,3.17
2019-03-25T05:49:12.829Z,3.17
2019-03-25T05:51:41.545Z,2.70
2019-03-25T05:54:10.255Z,3.70
2019-03-25T05:56:38.994Z,4.40
2019-03-25T05:59:07.784Z,3.27
2019-03-25T06:01:36.484Z,3.67
2019-03-25T06:04:05.213Z,4.47
2019-03-25T06:06:33.937Z,3.67
2019-03-25T06:09:02.936Z,3.77
2019-03-25T06:11:31.731Z,4.23
2019-03-25T06:14:00.552Z,3.93
2019-03-25T06:16:29.283Z,4.20
2019-03-25T06:18:58.022Z,3.80
2019-03-25T06:21:26.731Z,3.20
2019-03-25T06:23:55.537Z,3.47
2019-03-25T06:26:24.251Z,4.30
2019-03-25T06:28:53.134Z,3.57
2019-03-25T06:31:21.898Z,3.33
2019-03-25T06:33:50.642Z,4.87
2019-03-25T06:36:19.423Z,4.27
2019-03-25T06:38:48.168Z,4.13
2019-03-25T06:41:16.949Z,4.23
2019-03-25T06:43:45.757Z,4.73
2019-03-25T06:46:14.526Z,4.73
2019-03-25T06:48:43.413Z,4.20
2019-03-25T06:51:12.326Z,4.13
2019-03-25T06:53:41.275Z,4.00
2019-03-25T06:56:10.069Z,4.57
2019-03-25T06:58:38.982Z,4.00
2019-03-25T07:01:07.715Z,5.07
2019-03-25T07:03:36.502Z,3.77
2019-03-25T07:06:05.233Z,5.20
2019-03-25T07:08:33.954Z,4.70
2019-03-25T07:11:02.836Z,4.57
2019-03-25T07:13:31.707Z,4.40
2019-03-25T07:16:00.646Z,4.07
2019-03-25T07:18:29.398Z,3.83
2019-03-25T07:20:58.142Z,5.47
2019-03-25T07:23:26.843Z,4.20
2019-03-25T07:25:55.586Z,4.80
2019-03-25T07:28:24.340Z,5.03
2019-03-25T07:30:53.103Z,6.07
2019-03-25T07:33:21.807Z,4.50
2019-03-25T07:35:50.534Z,4.47
2019-03-25T07:38:19.240Z,4.77
2019-03-25T07:40:48.021Z,3.40
2019-03-25T07:43:16.752Z,3.57
2019-03-25T07:45:45.498Z,3.80
2019-03-25T07:48:14.297Z,4.37
2019-03-25T07:50:42.999Z,3.77
2019-03-25T07:53:11.745Z,4.20
2019-03-25T07:55:40.454Z,4.33
2019-03-25T07:58:09.351Z,4.67
2019-03-25T08:00:38.266Z,4.00
2019-03-25T08:03:07.059Z,4.93
2019-03-25T08:05:35.844Z,4.80
2019-03-25T08:08:07.262Z,3.40
2019-03-25T08:10:35.668Z,4.50
2019-03-25T08:13:04.700Z,4.80
2019-03-25T08:15:33.767Z,3.87
2019-03-25T08:18:03.313Z,4.13
2019-03-25T08:20:32.169Z,4.47
2019-03-25T08:23:00.971Z,3.60
2019-03-25T08:25:29.739Z,4.20
2019-03-25T08:28:00.146Z,3.03
2019-03-25T08:30:29.305Z,3.77
2019-03-25T08:33:00.929Z,3.30
2019-03-25T08:35:29.703Z,3.20
2019-03-25T08:37:58.448Z,2.60
2019-03-25T08:40:27.231Z,2.00
2019-03-25T08:42:56.103Z,3.30
2019-03-25T08:45:27.773Z,3.27
2019-03-25T08:47:56.539Z,2.90
2019-03-25T08:50:25.344Z,2.20
2019-03-25T08:52:54.068Z,2.83
2019-03-25T08:55:22.805Z,2.90
2019-03-25T08:57:51.657Z,2.40
2019-03-25T09:00:20.564Z,1.90
2019-03-25T09:02:49.338Z,2.50
2019-03-25T09:05:18.144Z,2.70
2019-03-25T09:07:46.928Z,2.23
2019-03-25T09:10:15.898Z,2.87
2019-03-25T09:12:44.688Z,2.27
2019-03-25T09:15:13.757Z,2.30
2019-03-25T09:17:42.646Z,2.67
2019-03-25T09:20:11.918Z,2.57
2019-03-25T09:22:40.865Z,2.67
2019-03-25T09:25:09.839Z,2.63
2019-03-25T09:27:38.765Z,2.93
2019-03-25T09:30:09.107Z,2.37
2019-03-25T09:32:37.969Z,2.67
2019-03-25T09:35:07.552Z,2.17
2019-03-25T09:37:37.007Z,2.93
2019-03-25T09:40:07.649Z,3.00
2019-03-25T09:42:36.430Z,2.33
2019-03-25T09:45:07.450Z,3.10
2019-03-25T09:47:37.809Z,3.03
2019-03-25T09:50:07.629Z,2.13
2019-03-25T09:52:38.857Z,2.93
2019-03-25T09:55:07.761Z,2.80
2019-03-25T09:57:36.571Z,2.80
2019-03-25T10:00:11.874Z,2.50
2019-03-25T10:02:40.811Z,2.30
2019-03-25T10:05:09.754Z,2.00
2019-03-25T10:07:38.512Z,2.20
2019-03-25T10:10:07.941Z,2.33
2019-03-25T10:12:36.814Z,2.20
2019-03-25T10:15:07.517Z,2.10
2019-03-25T10:17:36.307Z,1.93
2019-03-25T10:20:06.625Z,2.00
2019-03-25T10:22:35.418Z,1.87
2019-03-25T10:25:06.739Z,2.43
2019-03-25T10:27:35.711Z,2.40
2019-03-25T10:30:10.511Z,2.23
2019-03-25T10:32:39.385Z,1.90
2019-03-25T10:35:09.563Z,3.33
2019-03-25T10:37:38.285Z,1.90
2019-03-25T10:40:07.524Z,2.37
2019-03-25T10:42:36.280Z,2.00
2019-03-25T10:45:08.813Z,2.60
2019-03-25T10:47:37.526Z,2.07
2019-03-25T10:50:06.890Z,2.10
2019-03-25T10:52:35.727Z,2.33
2019-03-25T10:55:07.775Z,1.93
2019-03-25T10:57:36.308Z,1.90
2019-03-25T11:00:07.841Z,2.27
2019-03-25T11:02:36.674Z,2.10
2019-03-25T11:05:06.657Z,2.70
2019-03-25T11:07:35.605Z,2.70
2019-03-25T11:10:08.996Z,2.27
2019-03-25T11:12:37.830Z,2.60
2019-03-25T11:15:07.899Z,3.37
2019-03-25T11:17:36.876Z,2.60
2019-03-25T11:20:07.636Z,3.00
2019-03-25T11:22:36.481Z,2.53
2019-03-25T11:25:06.067Z,2.50
2019-03-25T11:27:34.774Z,2.10
2019-03-25T11:30:05.916Z,2.70
2019-03-25T11:32:34.773Z,2.93
2019-03-25T11:35:08.407Z,3.00
2019-03-25T11:37:37.191Z,3.30
2019-03-25T11:40:09.311Z,2.33
2019-03-25T11:42:39.193Z,3.10
2019-03-25T11:45:09.284Z,2.93
2019-03-25T11:47:38.239Z,2.67
2019-03-25T11:50:08.633Z,2.50
2019-03-25T11:52:37.419Z,2.80
2019-03-25T11:55:09.627Z,3.30
2019-03-25T11:57:38.370Z,2.40
2019-03-25T12:00:07.700Z,2.83
2019-03-25T12:02:36.655Z,2.43
2019-03-25T12:05:07.347Z,1.70
2019-03-25T12:07:36.299Z,3.20
2019-03-25T12:10:06.068Z,2.40
2019-03-25T12:12:34.822Z,2.63
2019-03-25T12:15:05.747Z,2.57
2019-03-25T12:17:34.634Z,2.60
2019-03-25T12:20:05.533Z,2.93
2019-03-25T12:22:34.384Z,2.23
2019-03-25T12:25:04.956Z,3.17
2019-03-25T12:27:33.989Z,1.50
2019-03-25T12:30:04.366Z,1.00
2019-03-25T12:32:33.280Z,1.27
2019-03-25T12:35:02.322Z,1.57
2019-03-25T12:37:31.212Z,1.37
2019-03-25T12:40:00.013Z,1.23
2019-03-25T12:42:28.748Z,1.73
2019-03-25T12:44:57.537Z,1.80
2019-03-25T12:47:26.323Z,2.27
2019-03-25T12:49:55.222Z,1.97
2019-03-25T12:52:23.965Z,2.70
2019-03-25T12:54:52.751Z,1.97
2019-03-25T12:57:21.507Z,1.90
2019-03-25T12:59:50.416Z,2.03
2019-03-25T13:02:19.239Z,2.60
2019-03-25T13:04:48.013Z,1.70
2019-03-25T13:07:16.938Z,4.20
2019-03-25T13:09:45.724Z,1.50
2019-03-25T13:12:14.566Z,1.93
2019-03-25T13:14:43.334Z,2.40
2019-03-25T13:17:11.907Z,2.10
2019-03-25T13:19:40.446Z,2.70
2019-03-25T13:22:08.840Z,2.70
2019-03-25T13:24:37.356Z,3.70
2019-03-25T13:27:05.777Z,3.50
2019-03-25T13:29:34.095Z,2.30
2019-03-25T13:32:02.557Z,3.00
2019-03-25T13:34:30.980Z,2.73
2019-03-25T13:36:59.558Z,2.43
2019-03-25T13:39:28.034Z,2.50
2019-03-25T13:41:56.328Z,2.77
2019-03-25T13:44:24.721Z,3.50
2019-03-25T13:46:53.068Z,2.87
2019-03-25T13:49:21.466Z,3.00
2019-03-25T13:51:50.747Z,2.60
2019-03-25T13:54:19.079Z,3.17
2019-03-25T13:56:47.474Z,3.40
2019-03-25T13:59:15.812Z,3.40
2019-03-25T14:01:44.264Z,2.23
2019-03-25T14:04:12.657Z,3.90
2019-03-25T14:06:41.081Z,3.17
2019-03-25T14:09:09.375Z,2.50
2019-03-25T14:11:37.676Z,2.00
2019-03-25T14:14:06.124Z,2.87
2019-03-25T14:16:34.597Z,3.10
2019-03-25T14:19:02.958Z,2.87
2019-03-25T14:21:31.380Z,2.43
2019-03-25T14:23:59.856Z,3.03
2019-03-25T14:26:28.247Z,2.43
2019-03-25T14:28:56.591Z,2.50
2019-03-25T14:31:25.058Z,2.33
2019-03-25T14:33:53.474Z,2.47
2019-03-25T14:36:21.860Z,2.40
2019-03-25T14:38:50.218Z,2.70
2019-03-25T14:41:18.689Z,2.07
2019-03-25T14:43:46.990Z,2.40
2019-03-25T14:46:15.404Z,2.70
2019-03-25T14:48:43.687Z,2.53
2019-03-25T14:51:12.052Z,3.30
2019-03-25T14:53:45.322Z,3.73
2019-03-25T14:56:11.329Z,2.50
2019-03-25T14:58:39.699Z,2.23
2019-03-25T15:01:08.070Z,2.50
2019-03-25T15:03:36.442Z,2.80
2019-03-25T15:06:04.753Z,2.97
2019-03-25T15:08:33.092Z,2.87
2019-03-25T15:11:01.879Z,2.60
2019-03-25T15:13:30.236Z,3.73
2019-03-25T15:15:58.871Z,2.53
2019-03-25T15:18:27.257Z,2.70
2019-03-25T15:20:55.543Z,2.50
2019-03-25T15:23:23.963Z,2.00
2019-03-25T15:25:52.342Z,3.20
2019-03-25T15:28:20.702Z,2.30
2019-03-25T15:30:49.122Z,3.00
2019-03-25T15:33:17.458Z,3.00
2019-03-25T15:35:45.812Z,2.70
2019-03-25T15:38:14.167Z,2.90
2019-03-25T15:40:42.550Z,3.53
2019-03-25T15:43:11.034Z,3.00
2019-03-25T15:45:39.376Z,2.60
2019-03-25T15:48:07.671Z,3.33
2019-03-25T15:50:36.159Z,3.60
2019-03-25T15:53:04.600Z,2.87
2019-03-25T15:55:32.984Z,3.07
2019-03-25T15:58:01.410Z,3.03
2019-03-25T16:00:29.831Z,3.27
2019-03-25T16:02:59.643Z,3.57
2019-03-25T16:05:27.965Z,3.17
2019-03-25T16:07:56.253Z,3.10
2019-03-25T16:10:24.665Z,3.40
2019-03-25T16:12:53.042Z,4.37
2019-03-25T16:15:31.814Z,3.50
2019-03-25T16:18:00.127Z,3.20
2019-03-25T16:20:28.430Z,3.47
2019-03-25T16:22:56.797Z,4.10
2019-03-25T16:25:25.661Z,3.30
2019-03-25T16:27:53.937Z,4.03
2019-03-25T16:30:22.233Z,4.10
2019-03-25T16:32:50.578Z,3.40
2019-03-25T16:35:18.893Z,3.70
2019-03-25T16:37:47.272Z,4.97
2019-03-25T16:40:15.740Z,3.77
2019-03-25T16:42:44.583Z,3.83
2019-03-25T16:45:12.958Z,5.03
2019-03-25T16:47:41.321Z,3.57
2019-03-25T16:50:09.702Z,4.83
2019-03-25T16:52:38.005Z,3.20
2019-03-25T16:55:06.565Z,4.23
2019-03-25T16:57:34.888Z,3.80
2019-03-25T17:00:04.366Z,3.67
2019-03-25T17:02:32.684Z,3.67
2019-03-25T17:05:01.104Z,4.23
2019-03-25T17:07:30.223Z,3.40
2019-03-25T17:09:58.618Z,4.43
2019-03-25T17:12:27.082Z,3.87
2019-03-25T17:14:55.378Z,2.97
2019-03-25T17:17:23.854Z,2.60
2019-03-25T17:19:52.213Z,2.83
2019-03-25T17:22:20.594Z,3.03
2019-03-25T17:24:48.864Z,3.27
2019-03-25T17:27:17.256Z,2.70
2019-03-25T17:29:45.549Z,2.90
2019-03-25T17:32:13.940Z,3.00
2019-03-25T17:34:42.245Z,3.13
2019-03-25T17:37:10.638Z,2.83
2019-03-25T17:39:41.675Z,2.60
2019-03-25T17:42:10.019Z,2.17
2019-03-25T17:44:38.531Z,2.10
2019-03-25T17:47:06.901Z,2.80
2019-03-25T17:49:35.191Z,2.13
2019-03-25T17:52:03.648Z,2.60
2019-03-25T17:54:31.969Z,1.97
2019-03-25T17:57:00.338Z,2.10
2019-03-25T17:59:28.716Z,2.13
2019-03-25T18:01:57.184Z,2.67
2019-03-25T18:04:25.756Z,2.20
2019-03-25T18:06:54.408Z,2.40
2019-03-25T18:09:23.068Z,2.07
2019-03-25T18:11:51.772Z,2.00
2019-03-25T18:14:26.371Z,2.13
2019-03-25T18:16:54.670Z,2.07
2019-03-25T18:19:23.287Z,2.50
2019-03-25T18:21:52.068Z,2.60
2019-03-25T18:24:20.919Z,2.10
2019-03-25T18:26:49.478Z,2.10
2019-03-25T18:29:18.195Z,2.27
2019-03-25T18:31:51.721Z,2.60
2019-03-25T18:34:24.234Z,2.57
2019-03-25T18:36:52.720Z,2.13
2019-03-25T18:39:21.203Z,3.10
2019-03-25T18:41:51.170Z,2.83
2019-03-25T18:44:19.620Z,2.60
2019-03-25T18:46:48.196Z,2.73
2019-03-25T18:49:16.761Z,2.53
2019-03-25T18:51:45.291Z,2.47
2019-03-25T18:54:13.801Z,2.70
2019-03-25T18:56:42.251Z,2.50
2019-03-25T18:59:10.886Z,2.63
2019-03-25T19:01:39.407Z,2.83
2019-03-25T19:04:07.988Z,2.77
2019-03-25T19:06:36.510Z,3.03
2019-03-25T19:09:05.875Z,2.63
2019-03-25T19:11:34.898Z,3.13
2019-03-25T19:14:03.384Z,3.90
2019-03-25T19:16:31.831Z,3.50
2019-03-25T19:19:01.699Z,2.97
2019-03-25T19:21:30.163Z,3.67
2019-03-25T19:23:59.569Z,2.80
2019-03-25T19:26:28.139Z,2.97
2019-03-25T19:28:57.933Z,3.70
2019-03-25T19:31:27.517Z,2.97
2019-03-25T19:33:55.944Z,2.80
2019-03-25T19:36:24.416Z,3.37
2019-03-25T19:38:52.762Z,3.13
2019-03-25T19:41:31.807Z,3.13
2019-03-25T19:43:52.734Z,3.63
2019-03-25T19:46:21.113Z,3.27
2019-03-25T19:48:49.435Z,3.23
2019-03-25T19:51:18.146Z,2.83
2019-03-25T19:53:47.030Z,2.80
2019-03-25T19:56:15.865Z,2.77
2019-03-25T19:58:44.705Z,3.83
2019-03-25T20:01:13.689Z,2.73
2019-03-25T20:03:42.425Z,3.43
2019-03-25T20:06:11.432Z,3.80
2019-03-25T20:08:40.259Z,3.03
2019-03-25T20:11:09.278Z,3.17
2019-03-25T20:13:39.125Z,4.33
2019-03-25T20:16:07.938Z,2.40
2019-03-25T20:18:36.857Z,2.50
2019-03-25T20:21:05.780Z,3.00
2019-03-25T20:23:34.550Z,2.67
2019-03-25T20:26:04.769Z,3.00
2019-03-25T20:28:33.600Z,2.60
2019-03-25T20:31:02.483Z,4.17
2019-03-25T20:33:31.434Z,3.20
2019-03-25T20:36:00.468Z,2.83
2019-03-25T20:38:29.312Z,2.87
2019-03-25T20:44:43.691Z,2.63
2019-03-25T20:47:19.498Z,3.47
2019-03-25T20:49:48.309Z,3.13
2019-03-25T20:52:17.278Z,2.70
2019-03-25T20:54:46.197Z,3.43
2019-03-25T20:57:15.034Z,3.63
2019-03-25T20:59:43.876Z,3.20
2019-03-25T21:02:12.818Z,2.47
2019-03-25T21:04:41.631Z,2.83
2019-03-25T21:07:11.054Z,3.20
2019-03-25T21:09:39.794Z,3.30
2019-03-25T21:12:08.658Z,3.53
2019-03-25T21:14:37.529Z,3.37
2019-03-25T21:17:06.390Z,3.90
2019-03-25T21:19:35.191Z,3.10
2019-03-25T21:22:04.033Z,4.17
2019-03-25T21:24:32.839Z,3.43
2019-03-25T21:27:01.838Z,2.67
2019-03-25T21:29:30.679Z,3.70
2019-03-25T21:31:59.480Z,3.00
2019-03-25T21:34:28.757Z,2.97
2019-03-25T21:36:57.535Z,3.40
2019-03-25T21:39:26.339Z,3.37
2019-03-25T21:41:55.143Z,3.37
2019-03-25T21:44:23.960Z,3.43
2019-03-25T21:46:52.689Z,3.03
2019-03-25T21:49:21.593Z,3.63
2019-03-25T21:51:50.424Z,3.73
2019-03-25T21:54:19.294Z,3.17
2019-03-25T21:56:48.361Z,2.90
2019-03-25T21:59:17.115Z,3.80
2019-03-25T22:01:46.085Z,3.07
2019-03-25T22:04:14.940Z,3.87
2019-03-25T22:06:43.978Z,4.17
2019-03-25T22:09:12.688Z,3.40
2019-03-25T22:11:41.430Z,2.57
2019-03-25T22:14:10.137Z,3.20
2019-03-25T22:16:38.941Z,3.40
2019-03-25T22:19:07.709Z,3.87
2019-03-25T22:21:36.522Z,3.90
2019-03-25T22:24:05.363Z,3.10
2019-03-25T22:26:34.101Z,3.30
2019-03-25T22:29:02.877Z,3.63
2019-03-25T22:31:31.701Z,3.87
2019-03-25T22:34:00.556Z,3.33
2019-03-25T22:36:29.358Z,3.70
2019-03-25T22:38:58.057Z,3.70
2019-03-25T22:41:26.859Z,3.63
2019-03-25T22:43:55.579Z,2.97
2019-03-25T22:46:24.323Z,4.53
2019-03-25T22:48:53.206Z,3.40
2019-03-25T22:51:22.043Z,2.83
2019-03-25T22:53:50.873Z,3.43
2019-03-25T22:56:19.585Z,3.30
2019-03-25T22:58:48.332Z,3.77
2019-03-25T23:01:17.193Z,3.30
2019-03-25T23:03:46.092Z,3.47
2019-03-25T23:06:14.873Z,3.33
2019-03-25T23:08:43.611Z,3.37
2019-03-25T23:11:12.319Z,3.10
2019-03-25T23:13:41.154Z,3.00
2019-03-25T23:16:09.959Z,3.70
2019-03-25T23:18:38.681Z,3.27
2019-03-25T23:21:07.388Z,3.07
2019-03-25T23:23:36.137Z,3.60
2019-03-25T23:26:04.973Z,3.00
2019-03-25T23:28:33.725Z,2.37
2019-03-25T23:31:02.442Z,2.97
2019-03-25T23:33:31.182Z,3.00
2019-03-25T23:35:59.985Z,2.70
2019-03-25T23:38:28.807Z,3.47
2019-03-25T23:40:57.507Z,2.50
2019-03-25T23:43:26.327Z,2.37
2019-03-25T23:45:55.114Z,3.33
2019-03-25T23:48:23.949Z,2.67
2019-03-25T23:50:52.669Z,2.97
2019-03-25T23:53:21.387Z,2.90
2019-03-25T23:55:50.186Z,3.53
2019-03-25T23:58:18.901Z,2.50
